createdAt,value
2018-05-24T00:00:25.714Z,87.45
2018-05-24T00:02:53.926Z,87.53
2018-05-24T00:05:22.099Z,87.42
2018-05-24T00:07:50.335Z,87.73
2018-05-24T00:10:18.455Z,87.38
2018-05-24T00:12:46.633Z,87.81
2018-05-24T00:15:15.255Z,87.88
2018-05-24T00:17:43.434Z,87.96
2018-05-24T00:20:11.597Z,88.11
2018-05-24T00:22:39.747Z,88.13
2018-05-24T00:25:07.904Z,88.21
2018-05-24T00:27:36.207Z,87.93
2018-05-24T00:30:05.225Z,88.21
2018-05-24T00:32:33.381Z,88.16
2018-05-24T00:35:01.546Z,88.33
2018-05-24T00:37:29.759Z,88.31
2018-05-24T00:39:57.930Z,88.28
2018-05-24T00:42:26.083Z,88.46
2018-05-24T00:44:54.265Z,88.45
2018-05-24T00:47:22.414Z,88.52
2018-05-24T00:49:50.556Z,88.69
2018-05-24T00:52:18.714Z,88.67
2018-05-24T00:54:46.889Z,88.78
2018-05-24T00:57:15.048Z,88.98
2018-05-24T00:59:43.234Z,89.01
2018-05-24T01:02:11.392Z,88.94
2018-05-24T01:04:39.538Z,89.37
2018-05-24T01:07:08.324Z,89.57
2018-05-24T01:09:36.494Z,89.84
2018-05-24T01:12:04.636Z,89.96
2018-05-24T01:14:32.794Z,89.96
2018-05-24T01:17:00.944Z,89.89
2018-05-24T01:19:29.108Z,89.58
2018-05-24T01:21:57.277Z,89.56
2018-05-24T01:24:38.667Z,89.60
2018-05-24T01:27:06.825Z,89.58
2018-05-24T01:29:35.011Z,90.01
2018-05-24T01:32:03.149Z,89.92
2018-05-24T01:34:31.301Z,89.50
2018-05-24T01:37:17.787Z,89.39
2018-05-24T01:39:45.946Z,88.98
2018-05-24T01:42:14.147Z,89.27
2018-05-24T01:44:42.297Z,89.77
2018-05-24T01:47:10.716Z,89.86
2018-05-24T01:49:38.882Z,90.04
2018-05-24T01:52:07.068Z,90.11
2018-05-24T01:54:35.217Z,90.28
2018-05-24T01:57:03.378Z,90.23
2018-05-24T01:59:31.607Z,90.21
2018-05-24T02:02:00.553Z,90.25
2018-05-24T02:04:28.738Z,90.08
2018-05-24T02:06:56.887Z,90.11
2018-05-24T02:09:25.059Z,90.14
2018-05-24T02:11:53.207Z,90.19
2018-05-24T02:14:21.342Z,90.19
2018-05-24T02:16:49.517Z,89.97
2018-05-24T02:19:17.660Z,90.00
2018-05-24T02:21:45.823Z,89.84
2018-05-24T02:24:14.524Z,89.97
2018-05-24T02:26:42.689Z,90.11
2018-05-24T02:29:10.954Z,90.02
2018-05-24T02:31:39.029Z,90.14
2018-05-24T02:34:08.059Z,90.04
2018-05-24T02:36:36.748Z,90.09
2018-05-24T02:39:05.854Z,90.17
2018-05-24T02:41:34.024Z,90.53
2018-05-24T02:44:02.209Z,90.87
2018-05-24T02:46:31.085Z,90.70
2018-05-24T02:48:59.280Z,90.54
2018-05-24T02:51:27.430Z,90.81
2018-05-24T02:53:55.606Z,90.70
2018-05-24T02:56:23.786Z,90.20
2018-05-24T02:58:51.914Z,89.90
2018-05-24T03:01:20.116Z,89.74
2018-05-24T03:03:48.305Z,90.48
2018-05-24T03:06:16.480Z,90.39
2018-05-24T03:08:44.660Z,90.35
2018-05-24T03:11:12.825Z,90.21
2018-05-24T03:13:41.904Z,90.23
2018-05-24T03:16:10.291Z,90.01
2018-05-24T03:18:38.491Z,89.64
2018-05-24T03:21:06.762Z,89.30
2018-05-24T03:23:34.918Z,89.05
2018-05-24T03:26:03.070Z,89.03
2018-05-24T03:28:32.211Z,88.87
2018-05-24T03:31:00.368Z,89.04
2018-05-24T03:33:28.525Z,89.90
2018-05-24T03:35:56.698Z,90.01
2018-05-24T03:38:24.884Z,90.38
2018-05-24T03:40:53.034Z,90.80
2018-05-24T03:43:21.224Z,90.80
2018-05-24T03:45:49.363Z,90.68
2018-05-24T03:48:17.526Z,90.81
2018-05-24T03:50:45.736Z,90.71
2018-05-24T03:53:13.971Z,90.87
2018-05-24T03:55:44.032Z,91.07
2018-05-24T03:58:13.482Z,91.33
2018-05-24T04:00:53.459Z,91.42
2018-05-24T04:03:33.379Z,91.43
2018-05-24T04:06:01.814Z,91.38
2018-05-24T04:08:29.963Z,91.61
2018-05-24T04:10:58.127Z,91.53
2018-05-24T04:13:26.272Z,91.62
2018-05-24T04:15:54.475Z,91.74
2018-05-24T04:18:22.622Z,91.70
2018-05-24T04:20:50.880Z,91.75
2018-05-24T04:23:19.028Z,91.90
2018-05-24T04:25:47.175Z,91.95
2018-05-24T04:28:15.366Z,91.96
2018-05-24T04:30:43.524Z,91.99
2018-05-24T04:33:11.715Z,92.08
2018-05-24T04:35:39.876Z,92.01
2018-05-24T04:38:09.555Z,91.75
2018-05-24T04:40:37.718Z,91.76
2018-05-24T04:43:05.902Z,91.64
2018-05-24T04:45:34.061Z,91.65
2018-05-24T04:48:03.229Z,91.62
2018-05-24T04:50:31.520Z,91.36
2018-05-24T04:52:59.669Z,91.30
2018-05-24T04:55:27.845Z,91.57
2018-05-24T04:57:56.005Z,91.74
2018-05-24T05:00:24.439Z,91.75
2018-05-24T05:02:52.611Z,91.71
2018-05-24T05:05:20.786Z,91.64
2018-05-24T05:07:48.959Z,91.92
2018-05-24T05:10:17.129Z,91.66
2018-05-24T05:12:45.310Z,91.21
2018-05-24T05:15:15.872Z,91.44
2018-05-24T05:17:44.981Z,90.99
2018-05-24T05:20:13.138Z,91.20
2018-05-24T05:22:41.331Z,91.07
2018-05-24T05:25:09.593Z,90.83
2018-05-24T05:27:37.720Z,90.60
2018-05-24T05:30:06.233Z,90.79
2018-05-24T05:32:34.406Z,90.77
2018-05-24T05:35:03.633Z,90.91
2018-05-24T05:37:31.893Z,90.64
2018-05-24T05:40:00.074Z,90.57
2018-05-24T05:42:28.223Z,90.64
2018-05-24T05:44:56.492Z,90.68
2018-05-24T05:47:24.570Z,90.76
2018-05-24T05:49:52.745Z,90.65
2018-05-24T05:52:21.271Z,90.56
2018-05-24T05:54:49.439Z,90.65
2018-05-24T05:57:17.606Z,91.00
2018-05-24T05:59:45.781Z,90.60
2018-05-24T06:02:13.956Z,90.44
2018-05-24T06:04:42.119Z,89.93
2018-05-24T06:07:10.278Z,90.03
2018-05-24T06:09:38.511Z,90.33
2018-05-24T06:12:10.169Z,90.31
2018-05-24T06:14:38.351Z,90.06
2018-05-24T06:17:06.511Z,90.00
2018-05-24T06:19:34.707Z,90.06
2018-05-24T06:22:02.886Z,89.98
2018-05-24T06:24:31.062Z,89.71
2018-05-24T06:26:59.240Z,89.70
2018-05-24T06:29:27.436Z,89.64
2018-05-24T06:31:55.600Z,89.25
2018-05-24T06:34:24.781Z,89.10
2018-05-24T06:36:54.405Z,88.62
2018-05-24T06:39:25.599Z,89.30
2018-05-24T06:41:53.861Z,89.52
2018-05-24T06:44:22.024Z,89.48
2018-05-24T06:46:50.170Z,89.11
2018-05-24T06:49:18.370Z,88.61
2018-05-24T06:51:46.525Z,88.56
2018-05-24T06:54:14.705Z,88.33
2018-05-24T06:56:42.869Z,88.75
2018-05-24T06:59:11.075Z,88.59
2018-05-24T07:01:39.252Z,88.65
2018-05-24T07:04:07.418Z,88.12
2018-05-24T07:06:35.585Z,88.67
2018-05-24T07:09:04.502Z,88.94
2018-05-24T07:11:32.734Z,88.79
2018-05-24T07:14:01.301Z,88.95
2018-05-24T07:16:29.500Z,89.34
2018-05-24T07:18:57.656Z,89.70
2018-05-24T07:21:25.855Z,90.08
2018-05-24T07:23:54.029Z,89.81
2018-05-24T07:26:22.202Z,89.87
2018-05-24T07:28:50.363Z,89.21
2018-05-24T07:31:18.547Z,89.20
2018-05-24T07:33:46.703Z,89.42
2018-05-24T07:36:14.889Z,88.56
2018-05-24T07:38:50.028Z,88.24
2018-05-24T07:41:18.235Z,87.39
2018-05-24T07:43:46.397Z,88.12
2018-05-24T07:46:14.555Z,88.08
2018-05-24T07:48:42.736Z,87.66
2018-05-24T07:51:10.935Z,87.29
2018-05-24T07:53:39.125Z,86.25
2018-05-24T07:56:07.297Z,86.91
2018-05-24T07:58:35.466Z,87.29
2018-05-24T08:01:03.635Z,87.43
2018-05-24T08:03:31.837Z,87.29
2018-05-24T08:05:59.980Z,87.82
2018-05-24T08:08:28.861Z,87.35
2018-05-24T08:10:57.042Z,86.33
2018-05-24T08:13:25.232Z,86.30
2018-05-24T08:15:55.594Z,86.24
2018-05-24T08:18:23.761Z,86.49
2018-05-24T08:20:51.917Z,86.57
2018-05-24T08:23:20.093Z,86.65
2018-05-24T08:25:48.315Z,87.41
2018-05-24T08:28:22.938Z,87.64
2018-05-24T08:30:51.115Z,87.28
2018-05-24T08:33:19.302Z,85.98
2018-05-24T08:35:47.469Z,85.97
2018-05-24T08:38:16.312Z,86.27
2018-05-24T08:40:44.508Z,82.73
2018-05-24T08:43:12.661Z,82.07
2018-05-24T08:45:40.796Z,81.01
2018-05-24T08:48:16.880Z,81.91
2018-05-24T08:50:45.019Z,83.10
2018-05-24T08:53:13.204Z,82.89
2018-05-24T08:55:41.383Z,82.94
2018-05-24T08:58:09.556Z,82.08
2018-05-24T09:00:37.712Z,80.80
2018-05-24T09:03:05.897Z,79.29
2018-05-24T09:05:34.064Z,79.97
2018-05-24T09:08:02.229Z,80.70
2018-05-24T09:10:30.424Z,80.68
2018-05-24T09:12:58.951Z,80.98
2018-05-24T09:15:27.108Z,80.49
2018-05-24T09:17:55.288Z,79.45
2018-05-24T09:20:23.501Z,80.49
2018-05-24T09:22:51.675Z,80.81
2018-05-24T09:25:19.846Z,82.58
2018-05-24T09:27:48.036Z,83.22
2018-05-24T09:30:17.303Z,83.09
2018-05-24T09:32:45.467Z,84.42
2018-05-24T09:35:13.617Z,85.01
2018-05-24T09:37:41.813Z,84.51
2018-05-24T09:40:09.984Z,85.20
2018-05-24T09:42:38.139Z,85.17
2018-05-24T09:45:06.320Z,85.21
2018-05-24T09:47:34.503Z,85.42
2018-05-24T09:50:02.689Z,85.34
2018-05-24T09:52:30.870Z,85.42
2018-05-24T09:54:59.059Z,86.69
2018-05-24T09:57:27.217Z,87.35
2018-05-24T09:59:55.403Z,86.93
2018-05-24T10:02:24.607Z,87.30
2018-05-24T10:04:52.801Z,86.36
2018-05-24T10:07:21.913Z,86.72
2018-05-24T10:09:50.091Z,86.27
2018-05-24T10:12:21.586Z,86.50
2018-05-24T10:14:49.736Z,86.49
2018-05-24T10:17:21.180Z,86.05
2018-05-24T10:19:49.348Z,87.05
2018-05-24T10:22:17.537Z,85.80
2018-05-24T10:24:45.701Z,85.92
2018-05-24T10:27:13.895Z,85.74
2018-05-24T10:29:42.048Z,86.69
2018-05-24T10:32:17.081Z,85.87
2018-05-24T10:34:45.281Z,84.18
2018-05-24T10:37:13.443Z,83.32
2018-05-24T10:39:41.618Z,82.70
2018-05-24T10:42:09.793Z,81.35
2018-05-24T10:44:37.993Z,80.45
2018-05-24T10:47:11.047Z,80.51
2018-05-24T10:49:39.237Z,80.05
2018-05-24T10:52:07.366Z,80.46
2018-05-24T10:54:36.466Z,80.46
2018-05-24T10:57:04.630Z,80.08
2018-05-24T10:59:32.828Z,80.83
2018-05-24T11:02:01.006Z,80.82
2018-05-24T11:04:29.187Z,80.76
2018-05-24T11:06:57.397Z,80.57
2018-05-24T11:09:25.558Z,77.23
2018-05-24T11:11:53.759Z,77.06
2018-05-24T11:14:24.591Z,78.41
2018-05-24T11:16:52.766Z,77.66
2018-05-24T11:19:20.919Z,78.09
2018-05-24T11:21:49.089Z,76.79
2018-05-24T11:24:17.561Z,77.35
2018-05-24T11:26:46.687Z,77.39
2018-05-24T11:29:14.845Z,76.67
2018-05-24T11:31:43.130Z,77.96
2018-05-24T11:34:11.226Z,77.85
2018-05-24T11:36:39.388Z,76.21
2018-05-24T11:39:11.122Z,74.93
2018-05-24T11:41:39.307Z,74.15
2018-05-24T11:44:07.561Z,75.68
2018-05-24T11:49:08.873Z,73.68
2018-05-24T11:51:37.679Z,73.17
2018-05-24T11:54:05.901Z,72.31
2018-05-24T11:56:34.079Z,73.88
2018-05-24T11:59:02.255Z,73.98
2018-05-24T12:01:30.423Z,75.31
2018-05-24T12:03:58.592Z,73.00
2018-05-24T12:06:26.773Z,73.71
2018-05-24T12:08:58.631Z,74.43
2018-05-24T12:11:26.815Z,73.37
2018-05-24T12:13:54.975Z,72.20
2018-05-24T12:16:23.147Z,72.18
2018-05-24T12:18:51.335Z,73.84
2018-05-24T12:21:19.508Z,73.71
2018-05-24T12:23:47.709Z,71.34
2018-05-24T12:26:15.863Z,72.04
2018-05-24T12:28:44.067Z,72.58
2018-05-24T12:31:12.292Z,71.87
2018-05-24T12:33:41.613Z,71.58
2018-05-24T12:36:12.538Z,70.48
2018-05-24T12:38:40.882Z,70.12
2018-05-24T12:41:09.762Z,71.06
2018-05-24T12:43:37.912Z,71.28
2018-05-24T12:46:06.087Z,71.69
2018-05-24T12:48:34.269Z,70.20
2018-05-24T12:51:02.442Z,70.68
2018-05-24T12:53:33.753Z,69.39
2018-05-24T12:56:01.938Z,68.21
2018-05-24T12:58:30.110Z,68.90
2018-05-24T13:00:58.297Z,69.82
2018-05-24T13:03:26.468Z,69.90
2018-05-24T13:05:54.626Z,68.82
2018-05-24T13:08:22.811Z,68.22
2018-05-24T13:10:50.982Z,68.26
2018-05-24T13:13:26.134Z,69.43
2018-05-24T13:15:54.294Z,68.30
2018-05-24T13:18:24.812Z,68.01
2018-05-24T13:20:52.964Z,69.79
2018-05-24T13:23:21.144Z,68.55
2018-05-24T13:25:49.320Z,69.37
2018-05-24T13:28:17.487Z,68.69
2018-05-24T13:30:47.262Z,67.92
2018-05-24T13:33:16.788Z,69.17
2018-05-24T13:35:44.961Z,69.43
2018-05-24T13:38:13.144Z,69.67
2018-05-24T13:40:41.340Z,70.40
2018-05-24T13:43:12.714Z,67.83
2018-05-24T13:45:42.252Z,67.83
2018-05-24T13:48:10.408Z,68.09
2018-05-24T13:50:38.609Z,68.46
2018-05-24T13:55:39.647Z,69.08
2018-05-24T13:58:07.808Z,69.48
2018-05-24T14:00:36.699Z,66.54
2018-05-24T14:03:04.868Z,65.65
2018-05-24T14:05:33.078Z,66.85
2018-05-24T14:08:01.219Z,64.93
2018-05-24T14:10:29.375Z,63.48
2018-05-24T14:12:58.236Z,60.63
2018-05-24T14:15:26.712Z,54.24
2018-05-24T14:17:54.900Z,56.10
2018-05-24T14:20:23.062Z,54.94
2018-05-24T14:22:51.325Z,55.13
2018-05-24T14:25:19.477Z,54.44
2018-05-24T14:27:47.691Z,51.93
2018-05-24T14:30:17.114Z,52.66
2018-05-24T14:32:45.441Z,52.81
2018-05-24T14:35:13.628Z,54.28
2018-05-24T14:37:41.804Z,52.84
2018-05-24T14:40:12.622Z,49.63
2018-05-24T14:42:40.792Z,48.03
2018-05-24T14:45:08.970Z,52.08
2018-05-24T14:47:39.585Z,54.69
2018-05-24T14:50:07.774Z,55.36
2018-05-24T14:52:35.996Z,55.17
2018-05-24T14:55:10.087Z,54.63
2018-05-24T14:57:38.269Z,54.68
2018-05-24T15:00:06.407Z,52.69
2018-05-24T15:02:34.578Z,48.00
2018-05-24T15:05:02.895Z,50.27
2018-05-24T15:07:31.049Z,49.20
2018-05-24T15:09:59.327Z,49.81
2018-05-24T15:12:27.493Z,48.29
2018-05-24T15:14:57.451Z,51.95
2018-05-24T15:17:25.664Z,51.71
2018-05-24T15:19:53.813Z,49.96
2018-05-24T15:22:33.490Z,48.86
2018-05-24T15:25:02.963Z,45.88
2018-05-24T15:27:31.394Z,45.01
2018-05-24T15:29:59.492Z,44.11
2018-05-24T15:32:28.182Z,45.41
2018-05-24T15:34:56.920Z,47.40
2018-05-24T15:37:25.056Z,46.57
2018-05-24T15:39:53.477Z,47.96
2018-05-24T15:42:21.683Z,46.58
2018-05-24T15:44:49.836Z,45.60
2018-05-24T15:47:17.993Z,45.32
2018-05-24T15:49:46.116Z,45.82
2018-05-24T15:52:14.228Z,44.22
2018-05-24T15:54:42.366Z,44.88
2018-05-24T15:57:10.474Z,44.98
2018-05-24T15:59:38.611Z,44.16
2018-05-24T16:02:06.759Z,45.05
2018-05-24T16:04:34.863Z,44.31
2018-05-24T16:09:37.558Z,49.47
2018-05-24T16:12:05.728Z,51.75
2018-05-24T16:14:33.892Z,53.11
2018-05-24T16:17:02.040Z,53.89
2018-05-24T16:20:11.747Z,54.71
2018-05-24T16:22:39.899Z,56.39
2018-05-24T16:25:08.049Z,55.87
2018-05-24T16:27:36.196Z,56.44
2018-05-24T16:30:04.316Z,57.62
2018-05-24T16:32:33.427Z,57.42
2018-05-24T16:35:01.556Z,58.41
2018-05-24T16:37:29.749Z,59.33
2018-05-24T16:39:57.875Z,60.48
2018-05-24T16:42:26.045Z,62.09
2018-05-24T16:44:54.156Z,62.41
2018-05-24T16:47:22.277Z,62.35
2018-05-24T16:49:50.452Z,61.63
2018-05-24T16:52:18.555Z,63.32
2018-05-24T16:54:46.713Z,62.29
2018-05-24T16:57:14.840Z,62.93
2018-05-24T16:59:42.966Z,63.81
2018-05-24T17:02:11.096Z,63.37
2018-05-24T17:04:39.242Z,63.93
2018-05-24T17:07:07.388Z,64.12
2018-05-24T17:09:35.526Z,64.85
2018-05-24T17:12:03.638Z,64.62
2018-05-24T17:14:32.183Z,64.96
2018-05-24T17:17:00.323Z,65.28
2018-05-24T17:19:28.452Z,65.63
2018-05-24T17:21:56.611Z,65.08
2018-05-24T17:24:24.746Z,64.92
2018-05-24T17:26:52.890Z,65.92
2018-05-24T17:29:21.024Z,66.19
2018-05-24T17:36:45.672Z,65.17
2018-05-24T17:39:17.414Z,66.17
2018-05-24T17:41:45.592Z,65.97
2018-05-24T17:44:13.770Z,66.46
2018-05-24T17:46:41.960Z,66.76
2018-05-24T17:49:10.133Z,67.31
2018-05-24T17:51:38.307Z,67.27
2018-05-24T17:54:09.807Z,67.33
2018-05-24T17:56:37.968Z,67.96
2018-05-24T17:59:06.250Z,68.41
2018-05-24T18:01:34.447Z,68.77
2018-05-24T18:04:02.630Z,69.28
2018-05-24T18:06:30.797Z,70.15
2018-05-24T18:08:59.007Z,72.69
2018-05-24T18:11:27.181Z,74.19
2018-05-24T18:13:55.373Z,74.27
2018-05-24T18:16:23.524Z,75.48
2018-05-24T18:18:52.441Z,76.51
2018-05-24T18:21:20.615Z,75.76
2018-05-24T18:23:48.799Z,75.07
2018-05-24T18:26:17.964Z,76.05
2018-05-24T18:28:46.619Z,76.85
2018-05-24T18:31:14.779Z,77.07
2018-05-24T18:33:42.947Z,76.35
2018-05-24T18:36:17.979Z,77.43
2018-05-24T18:38:46.147Z,77.66
2018-05-24T18:41:14.304Z,78.27
2018-05-24T18:43:42.493Z,78.56
2018-05-24T18:46:10.684Z,78.54
2018-05-24T18:48:38.871Z,77.21
2018-05-24T18:51:07.931Z,77.62
2018-05-24T18:53:37.949Z,77.65
2018-05-24T18:56:06.187Z,78.89
2018-05-24T18:58:34.356Z,78.64
2018-05-24T19:01:02.655Z,78.86
2018-05-24T19:03:30.842Z,78.71
2018-05-24T19:05:59.047Z,83.30
2018-05-24T19:08:27.249Z,83.60
2018-05-24T19:10:56.016Z,82.80
2018-05-24T19:13:25.776Z,84.17
2018-05-24T19:15:53.961Z,86.81
2018-05-24T19:18:22.141Z,87.15
2018-05-24T19:20:50.561Z,86.88
2018-05-24T19:23:18.730Z,86.74
2018-05-24T19:25:46.927Z,86.77
2018-05-24T19:28:15.466Z,87.62
2018-05-24T19:30:43.650Z,85.20
2018-05-24T19:33:11.854Z,84.95
2018-05-24T19:35:40.091Z,85.12
2018-05-24T19:38:08.254Z,84.39
2018-05-24T19:40:36.442Z,83.71
2018-05-24T19:43:04.637Z,84.73
2018-05-24T19:45:32.823Z,84.52
2018-05-24T19:48:00.980Z,85.62
2018-05-24T19:50:29.154Z,86.07
2018-05-24T19:52:57.338Z,85.95
2018-05-24T19:55:25.486Z,86.67
2018-05-24T19:57:53.725Z,87.88
2018-05-24T20:00:21.884Z,88.52
2018-05-24T20:02:50.735Z,89.15
2018-05-24T20:05:18.887Z,88.76
2018-05-24T20:07:47.098Z,89.05
2018-05-24T20:10:17.806Z,89.21
2018-05-24T20:12:45.999Z,89.27
2018-05-24T20:15:14.168Z,88.73
2018-05-24T20:17:42.375Z,88.41
2018-05-24T20:20:10.605Z,88.22
2018-05-24T20:22:38.755Z,89.18
2018-05-24T20:25:06.941Z,89.33
2018-05-24T20:27:35.091Z,89.68
2018-05-24T20:30:03.394Z,89.97
2018-05-24T20:32:31.583Z,89.82
2018-05-24T20:34:59.765Z,90.29
2018-05-24T20:37:27.942Z,90.45
2018-05-24T20:39:56.086Z,90.03
2018-05-24T20:42:24.269Z,89.69
2018-05-24T20:44:53.988Z,89.44
2018-05-24T20:47:24.293Z,90.83
2018-05-24T20:49:52.502Z,90.58
2018-05-24T20:52:20.658Z,90.35
2018-05-24T20:54:48.840Z,90.66
2018-05-24T20:57:17.019Z,91.21
2018-05-24T20:59:45.197Z,91.52
2018-05-24T21:02:13.417Z,91.47
2018-05-24T21:04:41.589Z,91.24
2018-05-24T21:07:10.463Z,91.47
2018-05-24T21:09:38.572Z,91.11
2018-05-24T21:12:06.783Z,90.47
2018-05-24T21:14:34.935Z,90.93
2018-05-24T21:17:03.385Z,90.67
2018-05-24T21:19:31.573Z,90.66
2018-05-24T21:22:00.149Z,90.61
2018-05-24T21:24:28.349Z,90.94
2018-05-24T21:26:56.494Z,90.94
2018-05-24T21:29:24.682Z,90.55
2018-05-24T21:31:52.900Z,90.37
2018-05-24T21:34:21.107Z,90.26
2018-05-24T21:36:49.322Z,90.40
2018-05-24T21:39:17.491Z,90.86
2018-05-24T21:41:45.642Z,91.18
2018-05-24T21:44:13.844Z,91.02
2018-05-24T21:46:42.027Z,90.51
2018-05-24T21:49:10.359Z,90.53
2018-05-24T21:51:38.532Z,90.28
2018-05-24T21:54:07.052Z,90.03
2018-05-24T21:56:35.220Z,90.07
2018-05-24T21:59:03.403Z,90.28
2018-05-24T22:01:31.581Z,90.25
2018-05-24T22:03:59.746Z,90.50
2018-05-24T22:06:27.946Z,90.78
2018-05-24T22:08:56.106Z,90.99
2018-05-24T22:11:24.293Z,91.49
2018-05-24T22:13:52.762Z,91.68
2018-05-24T22:16:21.017Z,91.85
2018-05-24T22:18:49.164Z,91.95
2018-05-24T22:21:17.347Z,92.35
2018-05-24T22:23:45.511Z,92.49
2018-05-24T22:26:15.140Z,93.00
2018-05-24T22:28:43.312Z,93.95
2018-05-24T22:31:14.384Z,94.34
2018-05-24T22:33:42.604Z,94.90
2018-05-24T22:36:10.762Z,95.27
2018-05-24T22:38:38.945Z,95.31
2018-05-24T22:41:07.124Z,95.22
2018-05-24T22:43:39.272Z,95.13
2018-05-24T22:46:07.444Z,94.94
2018-05-24T22:48:35.625Z,94.71
2018-05-24T22:51:03.829Z,94.92
2018-05-24T22:53:32.007Z,95.26
2018-05-24T22:56:01.720Z,95.58
2018-05-24T22:58:30.585Z,95.67
2018-05-24T23:00:58.786Z,95.65
2018-05-24T23:03:26.981Z,95.65
2018-05-24T23:05:55.165Z,95.66
2018-05-24T23:08:23.335Z,95.67
2018-05-24T23:10:51.517Z,95.45
2018-05-24T23:13:19.685Z,95.51
2018-05-24T23:15:47.862Z,95.56
2018-05-24T23:18:16.020Z,95.46
2018-05-24T23:20:44.210Z,95.42
2018-05-24T23:23:12.367Z,95.36
2018-05-24T23:25:40.529Z,95.37
2018-05-24T23:28:08.717Z,95.77
2018-05-24T23:30:36.891Z,95.72
2018-05-24T23:33:05.071Z,95.63
2018-05-24T23:35:33.222Z,95.89
2018-05-24T23:38:01.400Z,95.92
2018-05-24T23:40:29.588Z,95.75
2018-05-24T23:42:57.837Z,95.63
2018-05-24T23:45:25.994Z,95.46
2018-05-24T23:47:54.235Z,95.18
2018-05-24T23:50:22.403Z,95.18
2018-05-24T23:52:50.591Z,94.98
2018-05-24T23:55:18.812Z,94.83
2018-05-24T23:57:46.970Z,94.89
